sensor_id;sensor_type;location;lat;lon;timestamp;pressure;altitude;pressure_sealevel;temperature;humidity
55994;BME280;67425;52.126;20.638;2023-04-29T00:01:03;57343.97;;;-144.78;38.81
55994;BME280;67425;52.126;20.638;2023-04-29T00:03:29;57323.22;;;-144.78;38.48
55994;BME280;67425;52.126;20.638;2023-04-29T00:05:57;57310.75;;;-144.78;37.97
55994;BME280;67425;52.126;20.638;2023-04-29T00:08:22;57304.50;;;-144.78;38.42
55994;BME280;67425;52.126;20.638;2023-04-29T00:10:47;57337.75;;;-144.78;38.11
55994;BME280;67425;52.126;20.638;2023-04-29T00:13:13;57308.66;;;-144.78;37.85
55994;BME280;67425;52.126;20.638;2023-04-29T00:15:40;57302.44;;;-144.78;36.87
55994;BME280;67425;52.126;20.638;2023-04-29T00:18:05;57283.75;;;-144.78;37.13
55994;BME280;67425;52.126;20.638;2023-04-29T00:20:31;57289.97;;;-144.78;37.45
55994;BME280;67425;52.126;20.638;2023-04-29T00:22:56;57300.38;;;-144.78;37.27
55994;BME280;67425;52.126;20.638;2023-04-29T00:25:22;57314.91;;;-144.78;36.79
55994;BME280;67425;52.126;20.638;2023-04-29T00:27:47;57304.50;;;-144.78;37.78
55994;BME280;67425;52.126;20.638;2023-04-29T00:30:13;57366.81;;;-144.78;38.85
55994;BME280;67425;52.126;20.638;2023-04-29T00:32:38;57333.59;;;-144.78;38.85
55994;BME280;67425;52.126;20.638;2023-04-29T00:35:04;57306.59;;;-144.78;38.08
55994;BME280;67425;52.126;20.638;2023-04-29T00:37:29;57298.28;;;-144.78;37.04
55994;BME280;67425;52.126;20.638;2023-04-29T00:39:55;57283.75;;;-144.78;36.27
55994;BME280;67425;52.126;20.638;2023-04-29T00:42:20;57319.06;;;-144.78;37.50
55994;BME280;67425;52.126;20.638;2023-04-29T00:44:45;57348.13;;;-144.78;37.97
55994;BME280;67425;52.126;20.638;2023-04-29T00:47:11;57350.19;;;-144.78;39.47
55994;BME280;67425;52.126;20.638;2023-04-29T00:49:39;57350.19;;;-144.78;39.44
55994;BME280;67425;52.126;20.638;2023-04-29T00:52:05;57356.44;;;-144.78;38.81
55994;BME280;67425;52.126;20.638;2023-04-29T00:54:34;57312.81;;;-144.78;38.52
55994;BME280;67425;52.126;20.638;2023-04-29T00:57:00;57327.34;;;-144.78;38.99
55994;BME280;67425;52.126;20.638;2023-04-29T00:59:27;57339.81;;;-144.78;39.28
55994;BME280;67425;52.126;20.638;2023-04-29T01:01:58;57346.06;;;-144.78;38.87
55994;BME280;67425;52.126;20.638;2023-04-29T01:04:24;57343.97;;;-144.78;39.14
55994;BME280;67425;52.126;20.638;2023-04-29T01:07:14;57308.66;;;-144.78;38.45
55994;BME280;67425;52.126;20.638;2023-04-29T01:15:07;57323.22;;;-144.78;37.74
55994;BME280;67425;52.126;20.638;2023-04-29T01:18:02;57319.06;;;-144.78;37.69
55994;BME280;67425;52.126;20.638;2023-04-29T01:20:29;57323.22;;;-144.78;37.59
55994;BME280;67425;52.126;20.638;2023-04-29T01:22:55;57304.50;;;-144.78;37.74
55994;BME280;67425;52.126;20.638;2023-04-29T01:25:20;57310.75;;;-144.78;37.65
55994;BME280;67425;52.126;20.638;2023-04-29T01:27:56;57339.81;;;-144.78;37.28
55994;BME280;67425;52.126;20.638;2023-04-29T01:33:16;57343.97;;;-144.78;37.99
55994;BME280;67425;52.126;20.638;2023-04-29T01:38:42;57310.75;;;-144.78;37.90
55994;BME280;67425;52.126;20.638;2023-04-29T01:41:22;57304.50;;;-144.78;37.26
55994;BME280;67425;52.126;20.638;2023-04-29T01:43:55;57296.22;;;-144.78;37.45
55994;BME280;67425;52.126;20.638;2023-04-29T01:46:21;57302.44;;;-144.78;37.75
55994;BME280;67425;52.126;20.638;2023-04-29T01:48:47;57325.28;;;-144.78;37.89
55994;BME280;67425;52.126;20.638;2023-04-29T01:51:12;57333.59;;;-144.78;37.89
55994;BME280;67425;52.126;20.638;2023-04-29T01:53:38;57302.44;;;-144.78;38.03
55994;BME280;67425;52.126;20.638;2023-04-29T01:56:06;57308.66;;;-144.78;37.45
55994;BME280;67425;52.126;20.638;2023-04-29T01:58:31;57339.81;;;-144.78;38.34
55994;BME280;67425;52.126;20.638;2023-04-29T02:00:57;57316.97;;;-144.78;37.77
55994;BME280;67425;52.126;20.638;2023-04-29T02:03:22;57308.66;;;-144.78;37.68
55994;BME280;67425;52.126;20.638;2023-04-29T02:05:47;57333.59;;;-144.78;37.80
55994;BME280;67425;52.126;20.638;2023-04-29T02:08:15;57352.28;;;-144.78;39.97
55994;BME280;67425;52.126;20.638;2023-04-29T02:10:40;57343.97;;;-144.78;40.40
55994;BME280;67425;52.126;20.638;2023-04-29T02:13:06;57370.97;;;-144.78;39.98
55994;BME280;67425;52.126;20.638;2023-04-29T02:15:31;57337.75;;;-144.78;40.60
55994;BME280;67425;52.126;20.638;2023-04-29T02:17:56;57356.44;;;-144.78;39.61
55994;BME280;67425;52.126;20.638;2023-04-29T02:20:22;57352.28;;;-144.78;40.12
55994;BME280;67425;52.126;20.638;2023-04-29T02:22:47;57352.28;;;-144.78;40.80
55994;BME280;67425;52.126;20.638;2023-04-29T02:25:13;57358.50;;;-144.78;40.41
55994;BME280;67425;52.126;20.638;2023-04-29T02:27:38;57389.66;;;-144.78;40.16
55994;BME280;67425;52.126;20.638;2023-04-29T02:30:04;57339.81;;;-144.78;40.25
55994;BME280;67425;52.126;20.638;2023-04-29T02:32:30;57364.75;;;-144.78;40.06
55994;BME280;67425;52.126;20.638;2023-04-29T02:34:55;57352.28;;;-144.78;40.15
55994;BME280;67425;52.126;20.638;2023-04-29T02:37:21;57348.13;;;-144.78;39.99
55994;BME280;67425;52.126;20.638;2023-04-29T02:39:46;57348.13;;;-144.78;39.91
55994;BME280;67425;52.126;20.638;2023-04-29T02:42:12;57364.75;;;-144.78;40.36
55994;BME280;67425;52.126;20.638;2023-04-29T02:44:37;57356.44;;;-144.78;40.26
55994;BME280;67425;52.126;20.638;2023-04-29T02:47:02;57375.13;;;-144.78;40.67
55994;BME280;67425;52.126;20.638;2023-04-29T02:49:28;57352.28;;;-144.78;40.13
55994;BME280;67425;52.126;20.638;2023-04-29T02:51:53;57364.75;;;-144.78;40.16
55994;BME280;67425;52.126;20.638;2023-04-29T02:54:18;57366.81;;;-144.78;40.36
55994;BME280;67425;52.126;20.638;2023-04-29T02:56:44;57360.59;;;-144.78;40.54
55994;BME280;67425;52.126;20.638;2023-04-29T02:59:09;57356.44;;;-144.78;39.64
55994;BME280;67425;52.126;20.638;2023-04-29T03:01:35;57346.06;;;-144.78;39.90
55994;BME280;67425;52.126;20.638;2023-04-29T03:04:00;57362.66;;;-144.78;40.29
55994;BME280;67425;52.126;20.638;2023-04-29T03:06:26;57385.50;;;-144.78;40.68
55994;BME280;67425;52.126;20.638;2023-04-29T03:08:52;57373.06;;;-144.78;41.06
55994;BME280;67425;52.126;20.638;2023-04-29T03:11:17;57375.13;;;-144.78;40.46
55994;BME280;67425;52.126;20.638;2023-04-29T03:13:43;57368.91;;;-144.78;40.35
55994;BME280;67425;52.126;20.638;2023-04-29T03:16:10;57393.81;;;-144.78;41.07
55994;BME280;67425;52.126;20.638;2023-04-29T03:18:37;57368.91;;;-144.78;40.80
55994;BME280;67425;52.126;20.638;2023-04-29T03:21:03;57387.59;;;-144.78;40.86
55994;BME280;67425;52.126;20.638;2023-04-29T03:23:28;57356.44;;;-144.78;40.07
55994;BME280;67425;52.126;20.638;2023-04-29T03:25:54;57370.97;;;-144.78;40.11
55994;BME280;67425;52.126;20.638;2023-04-29T03:28:20;57373.06;;;-144.78;41.05
55994;BME280;67425;52.126;20.638;2023-04-29T03:30:45;57356.44;;;-144.78;40.57
55994;BME280;67425;52.126;20.638;2023-04-29T03:33:10;57368.91;;;-144.78;40.04
55994;BME280;67425;52.126;20.638;2023-04-29T03:35:36;57383.44;;;-144.78;41.29
55994;BME280;67425;52.126;20.638;2023-04-29T03:38:01;57354.34;;;-144.78;40.14
55994;BME280;67425;52.126;20.638;2023-04-29T03:40:26;57356.44;;;-144.78;40.31
55994;BME280;67425;52.126;20.638;2023-04-29T03:42:52;57352.28;;;-144.78;39.62
55994;BME280;67425;52.126;20.638;2023-04-29T03:45:17;57354.34;;;-144.78;39.70
55994;BME280;67425;52.126;20.638;2023-04-29T03:47:43;57370.97;;;-144.78;39.60
55994;BME280;67425;52.126;20.638;2023-04-29T03:50:08;57343.97;;;-144.78;39.02
55994;BME280;67425;52.126;20.638;2023-04-29T03:52:34;57366.81;;;-144.78;40.48
55994;BME280;67425;52.126;20.638;2023-04-29T03:55:02;57323.22;;;-144.78;38.85
55994;BME280;67425;52.126;20.638;2023-04-29T03:57:28;57323.22;;;-144.78;38.52
55994;BME280;67425;52.126;20.638;2023-04-29T03:59:53;57339.81;;;-144.78;39.11
55994;BME280;67425;52.126;20.638;2023-04-29T04:02:18;57321.13;;;-144.78;39.71
55994;BME280;67425;52.126;20.638;2023-04-29T04:04:44;57337.75;;;-144.78;39.22
55994;BME280;67425;52.126;20.638;2023-04-29T04:07:09;57358.50;;;-144.78;39.49
55994;BME280;67425;52.126;20.638;2023-04-29T04:09:36;57337.75;;;-144.78;39.34
55994;BME280;67425;52.126;20.638;2023-04-29T04:12:02;57354.34;;;-144.78;40.80
55994;BME280;67425;52.126;20.638;2023-04-29T04:14:28;57362.66;;;-144.78;40.59
55994;BME280;67425;52.126;20.638;2023-04-29T04:16:54;57364.75;;;-144.78;40.65
55994;BME280;67425;52.126;20.638;2023-04-29T04:19:19;57352.28;;;-144.78;40.98
55994;BME280;67425;52.126;20.638;2023-04-29T04:21:45;57343.97;;;-144.78;40.70
55994;BME280;67425;52.126;20.638;2023-04-29T04:24:10;57339.81;;;-144.78;40.08
55994;BME280;67425;52.126;20.638;2023-04-29T04:26:35;57350.19;;;-144.78;40.65
55994;BME280;67425;52.126;20.638;2023-04-29T04:29:01;57352.28;;;-144.78;39.52
55994;BME280;67425;52.126;20.638;2023-04-29T04:31:27;57325.28;;;-144.78;38.96
55994;BME280;67425;52.126;20.638;2023-04-29T04:33:53;57354.34;;;-144.78;39.98
55994;BME280;67425;52.126;20.638;2023-04-29T04:36:18;57335.66;;;-144.78;39.54
55994;BME280;67425;52.126;20.638;2023-04-29T04:38:43;57362.66;;;-144.78;39.44
55994;BME280;67425;52.126;20.638;2023-04-29T04:41:09;57333.59;;;-144.78;39.46
55994;BME280;67425;52.126;20.638;2023-04-29T04:43:34;57312.81;;;-144.78;38.93
55994;BME280;67425;52.126;20.638;2023-04-29T04:45:59;57319.06;;;-144.78;39.14
55994;BME280;67425;52.126;20.638;2023-04-29T04:48:24;57300.38;;;-144.78;38.92
55994;BME280;67425;52.126;20.638;2023-04-29T04:50:50;57327.34;;;-144.78;38.93
55994;BME280;67425;52.126;20.638;2023-04-29T04:53:15;57283.75;;;-144.78;37.95
55994;BME280;67425;52.126;20.638;2023-04-29T04:55:41;57308.66;;;-144.78;38.72
55994;BME280;67425;52.126;20.638;2023-04-29T04:58:06;57310.75;;;-144.78;38.76
55994;BME280;67425;52.126;20.638;2023-04-29T05:00:32;57312.81;;;-144.78;39.29
55994;BME280;67425;52.126;20.638;2023-04-29T05:02:57;57281.69;;;-144.78;37.74
55994;BME280;67425;52.126;20.638;2023-04-29T05:05:22;57279.59;;;-144.78;37.52
55994;BME280;67425;52.126;20.638;2023-04-29T05:07:48;57281.69;;;-144.78;38.09
55994;BME280;67425;52.126;20.638;2023-04-29T05:10:13;57306.59;;;-144.78;38.22
55994;BME280;67425;52.126;20.638;2023-04-29T05:12:38;57273.38;;;-144.78;37.86
55994;BME280;67425;52.126;20.638;2023-04-29T05:15:04;57296.22;;;-144.78;37.66
55994;BME280;67425;52.126;20.638;2023-04-29T05:17:30;57323.22;;;-144.78;38.36
55994;BME280;67425;52.126;20.638;2023-04-29T05:19:55;57285.81;;;-144.78;37.83
55994;BME280;67425;52.126;20.638;2023-04-29T05:22:21;57285.81;;;-144.78;37.67
55994;BME280;67425;52.126;20.638;2023-04-29T05:24:46;57289.97;;;-144.78;37.89
55994;BME280;67425;52.126;20.638;2023-04-29T05:27:15;57294.13;;;-144.78;37.52
55994;BME280;67425;52.126;20.638;2023-04-29T05:29:41;57289.97;;;-144.78;37.48
55994;BME280;67425;52.126;20.638;2023-04-29T05:32:06;57258.84;;;-144.78;37.39
55994;BME280;67425;52.126;20.638;2023-04-29T05:34:32;57265.06;;;-144.78;37.50
55994;BME280;67425;52.126;20.638;2023-04-29T05:36:57;57285.81;;;-144.78;36.30
55994;BME280;67425;52.126;20.638;2023-04-29T05:39:22;57275.44;;;-144.78;36.54
55994;BME280;67425;52.126;20.638;2023-04-29T05:41:48;57256.75;;;-144.78;36.51
55994;BME280;67425;52.126;20.638;2023-04-29T05:44:13;57248.44;;;-144.78;35.49
55994;BME280;67425;52.126;20.638;2023-04-29T05:46:38;57252.59;;;-144.78;36.30
55994;BME280;67425;52.126;20.638;2023-04-29T05:49:04;57256.75;;;-144.78;36.35
55994;BME280;67425;52.126;20.638;2023-04-29T05:51:29;57248.44;;;-144.78;36.30
55994;BME280;67425;52.126;20.638;2023-04-29T05:53:56;57242.22;;;-144.78;35.94
55994;BME280;67425;52.126;20.638;2023-04-29T05:56:23;57229.75;;;-144.78;35.21
55994;BME280;67425;52.126;20.638;2023-04-29T05:58:48;57231.84;;;-144.78;35.48
55994;BME280;67425;52.126;20.638;2023-04-29T06:01:14;57248.44;;;-144.78;36.39
55994;BME280;67425;52.126;20.638;2023-04-29T06:03:41;57221.44;;;-144.78;35.42
55994;BME280;67425;52.126;20.638;2023-04-29T06:06:06;57223.53;;;-144.78;35.48
55994;BME280;67425;52.126;20.638;2023-04-29T06:08:32;57231.84;;;-144.78;34.79
55994;BME280;67425;52.126;20.638;2023-04-29T06:10:57;57202.75;;;-144.78;34.17
55994;BME280;67425;52.126;20.638;2023-04-29T06:13:22;57202.75;;;-144.78;34.25
55994;BME280;67425;52.126;20.638;2023-04-29T06:15:49;57206.91;;;-144.78;35.37
55994;BME280;67425;52.126;20.638;2023-04-29T06:18:14;57229.75;;;-144.78;34.87
55994;BME280;67425;52.126;20.638;2023-04-29T06:20:39;57188.22;;;-144.78;34.88
55994;BME280;67425;52.126;20.638;2023-04-29T06:23:05;57219.38;;;-144.78;34.90
55994;BME280;67425;52.126;20.638;2023-04-29T06:25:30;57194.47;;;-144.78;34.33
55994;BME280;67425;52.126;20.638;2023-04-29T06:27:56;57192.38;;;-144.78;33.91
55994;BME280;67425;52.126;20.638;2023-04-29T06:30:22;57173.69;;;-144.78;34.28
55994;BME280;67425;52.126;20.638;2023-04-29T06:32:47;57173.69;;;-144.78;34.12
55994;BME280;67425;52.126;20.638;2023-04-29T06:35:12;57190.31;;;-144.78;34.13
55994;BME280;67425;52.126;20.638;2023-04-29T06:37:38;57186.16;;;-144.78;33.82
55994;BME280;67425;52.126;20.638;2023-04-29T06:40:03;57146.69;;;-144.78;33.67
55994;BME280;67425;52.126;20.638;2023-04-29T06:42:29;57171.63;;;-144.78;33.55
55994;BME280;67425;52.126;20.638;2023-04-29T06:44:54;57169.53;;;-144.78;33.79
55994;BME280;67425;52.126;20.638;2023-04-29T06:47:19;57148.78;;;-144.78;33.71
55994;BME280;67425;52.126;20.638;2023-04-29T06:49:45;57146.69;;;-144.78;33.64
55994;BME280;67425;52.126;20.638;2023-04-29T06:52:11;57136.31;;;-144.78;32.44
55994;BME280;67425;52.126;20.638;2023-04-29T06:54:36;57150.84;;;-144.78;32.46
55994;BME280;67425;52.126;20.638;2023-04-29T06:57:02;57142.53;;;-144.78;33.06
55994;BME280;67425;52.126;20.638;2023-04-29T06:59:27;57144.63;;;-144.78;33.29
55994;BME280;67425;52.126;20.638;2023-04-29T07:01:53;57130.09;;;-144.78;33.33
55994;BME280;67425;52.126;20.638;2023-04-29T07:04:18;57125.94;;;-144.78;32.89
55994;BME280;67425;52.126;20.638;2023-04-29T07:06:43;57125.94;;;-144.78;32.32
55994;BME280;67425;52.126;20.638;2023-04-29T07:09:11;57125.94;;;-144.78;32.33
55994;BME280;67425;52.126;20.638;2023-04-29T07:11:38;57128.00;;;-144.78;33.23
55994;BME280;67425;52.126;20.638;2023-04-29T07:14:03;57111.41;;;-144.78;32.21
55994;BME280;67425;52.126;20.638;2023-04-29T07:16:28;57117.63;;;-144.78;32.06
55994;BME280;67425;52.126;20.638;2023-04-29T07:18:54;57096.84;;;-144.78;32.39
55994;BME280;67425;52.126;20.638;2023-04-29T07:21:19;57092.69;;;-144.78;31.71
55994;BME280;67425;52.126;20.638;2023-04-29T07:23:45;57090.63;;;-144.78;31.00
55994;BME280;67425;52.126;20.638;2023-04-29T07:26:10;57086.47;;;-144.78;31.85
55994;BME280;67425;52.126;20.638;2023-04-29T07:28:36;57076.09;;;-144.78;31.10
55994;BME280;67425;52.126;20.638;2023-04-29T07:31:01;57113.47;;;-144.78;31.12
55994;BME280;67425;52.126;20.638;2023-04-29T07:33:26;57098.94;;;-144.78;31.65
55994;BME280;67425;52.126;20.638;2023-04-29T07:35:52;57078.16;;;-144.78;30.92
55994;BME280;67425;52.126;20.638;2023-04-29T07:38:18;57071.94;;;-144.78;30.74
55994;BME280;67425;52.126;20.638;2023-04-29T07:40:45;57061.56;;;-144.78;31.00
55994;BME280;67425;52.126;20.638;2023-04-29T07:43:10;57088.56;;;-144.78;30.94
55994;BME280;67425;52.126;20.638;2023-04-29T07:45:37;57078.16;;;-144.78;30.89
55994;BME280;67425;52.126;20.638;2023-04-29T07:48:04;57065.72;;;-144.78;30.61
55994;BME280;67425;52.126;20.638;2023-04-29T07:50:29;57074.00;;;-144.78;30.50
55994;BME280;67425;52.126;20.638;2023-04-29T07:52:55;57071.94;;;-144.78;31.08
55994;BME280;67425;52.126;20.638;2023-04-29T07:55:22;57082.31;;;-144.78;31.55
55994;BME280;67425;52.126;20.638;2023-04-29T07:57:47;57080.25;;;-144.78;31.10
55994;BME280;67425;52.126;20.638;2023-04-29T08:00:13;57098.94;;;-144.78;31.59
55994;BME280;67425;52.126;20.638;2023-04-29T08:02:38;57096.84;;;-144.78;31.79
55994;BME280;67425;52.126;20.638;2023-04-29T08:05:03;57071.94;;;-144.78;31.36
55994;BME280;67425;52.126;20.638;2023-04-29T08:07:29;57086.47;;;-144.78;31.26
55994;BME280;67425;52.126;20.638;2023-04-29T08:09:54;57113.47;;;-144.78;30.99
55994;BME280;67425;52.126;20.638;2023-04-29T08:12:20;57090.63;;;-144.78;30.38
55994;BME280;67425;52.126;20.638;2023-04-29T08:14:45;57092.69;;;-144.78;30.84
55994;BME280;67425;52.126;20.638;2023-04-29T08:17:10;57088.56;;;-144.78;31.01
55994;BME280;67425;52.126;20.638;2023-04-29T08:19:35;57082.31;;;-144.78;31.45
55994;BME280;67425;52.126;20.638;2023-04-29T08:22:01;57053.25;;;-144.78;31.07
55994;BME280;67425;52.126;20.638;2023-04-29T08:24:28;57030.41;;;-144.78;30.50
55994;BME280;67425;52.126;20.638;2023-04-29T08:26:53;57044.94;;;-144.78;30.55
55994;BME280;67425;52.126;20.638;2023-04-29T08:29:19;57049.09;;;-144.78;30.15
55994;BME280;67425;52.126;20.638;2023-04-29T08:31:44;57028.34;;;-144.78;30.11
55994;BME280;67425;52.126;20.638;2023-04-29T08:34:10;57065.72;;;-144.78;30.32
55994;BME280;67425;52.126;20.638;2023-04-29T08:36:36;57090.63;;;-144.78;30.62
55994;BME280;67425;52.126;20.638;2023-04-29T08:39:03;57107.25;;;-144.78;30.99
55994;BME280;67425;52.126;20.638;2023-04-29T08:41:30;57096.84;;;-144.78;30.51
55994;BME280;67425;52.126;20.638;2023-04-29T08:43:58;57076.09;;;-144.78;31.29
55994;BME280;67425;52.126;20.638;2023-04-29T08:46:24;57090.63;;;-144.78;31.71
55994;BME280;67425;52.126;20.638;2023-04-29T08:48:50;57092.69;;;-144.78;31.36
55994;BME280;67425;52.126;20.638;2023-04-29T08:51:16;57074.00;;;-144.78;31.06
55994;BME280;67425;52.126;20.638;2023-04-29T08:53:41;57047.03;;;-144.78;31.62
55994;BME280;67425;52.126;20.638;2023-04-29T08:56:16;57036.63;;;-144.78;31.58
55994;BME280;67425;52.126;20.638;2023-04-29T08:58:44;57040.78;;;-144.78;30.05
55994;BME280;67425;52.126;20.638;2023-04-29T09:01:11;57051.16;;;-144.78;31.12
55994;BME280;67425;52.126;20.638;2023-04-29T09:03:45;57055.31;;;-144.78;30.58
55994;BME280;67425;52.126;20.638;2023-04-29T09:06:11;57036.63;;;-144.78;29.51
55994;BME280;67425;52.126;20.638;2023-04-29T09:08:38;57034.56;;;-144.78;30.65
55994;BME280;67425;52.126;20.638;2023-04-29T09:11:07;57036.63;;;-144.78;29.53
55994;BME280;67425;52.126;20.638;2023-04-29T09:13:33;57044.94;;;-144.78;29.62
55994;BME280;67425;52.126;20.638;2023-04-29T09:15:58;57024.19;;;-144.78;30.08
55994;BME280;67425;52.126;20.638;2023-04-29T09:18:49;57009.66;;;-144.78;29.08
55994;BME280;67425;52.126;20.638;2023-04-29T09:21:28;57026.25;;;-144.78;30.38
55994;BME280;67425;52.126;20.638;2023-04-29T09:23:55;57032.47;;;-144.78;30.41
55994;BME280;67425;52.126;20.638;2023-04-29T09:26:21;57036.63;;;-144.78;30.62
55994;BME280;67425;52.126;20.638;2023-04-29T09:29:12;57026.25;;;-144.78;29.92
55994;BME280;67425;52.126;20.638;2023-04-29T09:31:40;57020.03;;;-144.78;30.01
55994;BME280;67425;52.126;20.638;2023-04-29T09:34:06;57030.41;;;-144.78;29.94
55994;BME280;67425;52.126;20.638;2023-04-29T09:36:48;57005.50;;;-144.78;29.59
55994;BME280;67425;52.126;20.638;2023-04-29T09:39:17;57020.03;;;-144.78;30.88
55994;BME280;67425;52.126;20.638;2023-04-29T09:44:40;57011.72;;;-144.78;29.76
55994;BME280;67425;52.126;20.638;2023-04-29T09:47:07;57017.94;;;-144.78;30.26
55994;BME280;67425;52.126;20.638;2023-04-29T09:49:41;57015.88;;;-144.78;30.24
55994;BME280;67425;52.126;20.638;2023-04-29T09:52:08;57020.03;;;-144.78;29.73
55994;BME280;67425;52.126;20.638;2023-04-29T09:54:36;57005.50;;;-144.78;29.48
55994;BME280;67425;52.126;20.638;2023-04-29T09:57:03;57009.66;;;-144.78;29.78
55994;BME280;67425;52.126;20.638;2023-04-29T09:59:33;57011.72;;;-144.78;28.75
55994;BME280;67425;52.126;20.638;2023-04-29T10:02:15;57007.56;;;-144.78;29.04
55994;BME280;67425;52.126;20.638;2023-04-29T10:04:44;57015.88;;;-144.78;29.74
55994;BME280;67425;52.126;20.638;2023-04-29T10:07:13;57007.56;;;-144.78;29.45
55994;BME280;67425;52.126;20.638;2023-04-29T10:09:39;56990.97;;;-144.78;29.32
55994;BME280;67425;52.126;20.638;2023-04-29T10:12:06;56990.97;;;-144.78;29.34
55994;BME280;67425;52.126;20.638;2023-04-29T10:14:42;57003.41;;;-144.78;28.89
55994;BME280;67425;52.126;20.638;2023-04-29T10:17:23;57013.78;;;-144.78;29.73
55994;BME280;67425;52.126;20.638;2023-04-29T10:20:04;57005.50;;;-144.78;28.84
55994;BME280;67425;52.126;20.638;2023-04-29T10:25:09;57026.25;;;-144.78;28.93
55994;BME280;67425;52.126;20.638;2023-04-29T10:27:36;57011.72;;;-144.78;28.70
55994;BME280;67425;52.126;20.638;2023-04-29T10:30:02;57030.41;;;-144.78;29.02
55994;BME280;67425;52.126;20.638;2023-04-29T10:32:29;57020.03;;;-144.78;28.93
55994;BME280;67425;52.126;20.638;2023-04-29T10:34:55;56990.97;;;-144.78;30.43
55994;BME280;67425;52.126;20.638;2023-04-29T10:37:23;56988.88;;;-144.78;30.10
55994;BME280;67425;52.126;20.638;2023-04-29T10:45:16;56978.50;;;-144.78;28.76
55994;BME280;67425;52.126;20.638;2023-04-29T10:53:13;57022.09;;;-144.78;28.97
55994;BME280;67425;52.126;20.638;2023-04-29T10:55:39;57022.09;;;-144.78;28.78
55994;BME280;67425;52.126;20.638;2023-04-29T11:00:59;56993.03;;;-144.78;28.81
55994;BME280;67425;52.126;20.638;2023-04-29T11:03:50;56978.50;;;-144.78;29.55
55994;BME280;67425;52.126;20.638;2023-04-29T11:06:23;56955.66;;;-144.78;28.34
55994;BME280;67425;52.126;20.638;2023-04-29T11:09:19;56976.41;;;-144.78;28.13
55994;BME280;67425;52.126;20.638;2023-04-29T11:14:37;56959.81;;;-144.78;28.16
55994;BME280;67425;52.126;20.638;2023-04-29T11:17:12;56945.28;;;-144.78;28.08
55994;BME280;67425;52.126;20.638;2023-04-29T11:19:46;56941.13;;;-144.78;27.79
55994;BME280;67425;52.126;20.638;2023-04-29T11:24:52;56945.28;;;-144.78;27.41
55994;BME280;67425;52.126;20.638;2023-04-29T11:27:19;56922.44;;;-144.78;26.80
55994;BME280;67425;52.126;20.638;2023-04-29T11:29:47;56949.44;;;-144.78;27.69
55994;BME280;67425;52.126;20.638;2023-04-29T11:32:14;56951.50;;;-144.78;27.39
55994;BME280;67425;52.126;20.638;2023-04-29T11:34:39;56945.28;;;-144.78;27.43
55994;BME280;67425;52.126;20.638;2023-04-29T11:37:04;56926.59;;;-144.78;27.46
55994;BME280;67425;52.126;20.638;2023-04-29T11:39:34;56928.66;;;-144.78;27.38
55994;BME280;67425;52.126;20.638;2023-04-29T11:42:05;56926.59;;;-144.78;26.91
55994;BME280;67425;52.126;20.638;2023-04-29T11:44:33;56930.72;;;-144.78;26.80
55994;BME280;67425;52.126;20.638;2023-04-29T11:47:06;56934.88;;;-144.78;26.68
55994;BME280;67425;52.126;20.638;2023-04-29T11:49:32;56955.66;;;-144.78;27.01
55994;BME280;67425;52.126;20.638;2023-04-29T11:51:58;56941.13;;;-144.78;26.62
55994;BME280;67425;52.126;20.638;2023-04-29T11:54:25;56922.44;;;-144.78;27.24
55994;BME280;67425;52.126;20.638;2023-04-29T11:56:52;56928.66;;;-144.78;26.38
55994;BME280;67425;52.126;20.638;2023-04-29T11:59:19;56949.44;;;-144.78;27.17
55994;BME280;67425;52.126;20.638;2023-04-29T12:01:45;56930.72;;;-144.78;26.61
55994;BME280;67425;52.126;20.638;2023-04-29T12:04:10;56928.66;;;-144.78;27.40
55994;BME280;67425;52.126;20.638;2023-04-29T12:06:35;56963.97;;;-144.78;27.67
55994;BME280;67425;52.126;20.638;2023-04-29T12:09:01;56972.25;;;-144.78;27.58
55994;BME280;67425;52.126;20.638;2023-04-29T12:11:28;56957.72;;;-144.78;27.85
55994;BME280;67425;52.126;20.638;2023-04-29T12:13:55;56924.50;;;-144.78;27.89
55994;BME280;67425;52.126;20.638;2023-04-29T12:16:21;56943.19;;;-144.78;27.38
55994;BME280;67425;52.126;20.638;2023-04-29T12:18:49;56970.19;;;-144.78;27.69
55994;BME280;67425;52.126;20.638;2023-04-29T12:21:15;56966.03;;;-144.78;27.71
55994;BME280;67425;52.126;20.638;2023-04-29T12:23:40;56936.97;;;-144.78;27.24
55994;BME280;67425;52.126;20.638;2023-04-29T12:26:05;56970.19;;;-144.78;27.61
55994;BME280;67425;52.126;20.638;2023-04-29T12:28:32;56928.66;;;-144.78;27.22
55994;BME280;67425;52.126;20.638;2023-04-29T12:30:57;56924.50;;;-144.78;26.87
55994;BME280;67425;52.126;20.638;2023-04-29T12:33:25;56955.66;;;-144.78;27.17
55994;BME280;67425;52.126;20.638;2023-04-29T12:35:53;56945.28;;;-144.78;26.84
55994;BME280;67425;52.126;20.638;2023-04-29T12:38:29;56972.25;;;-144.78;27.79
55994;BME280;67425;52.126;20.638;2023-04-29T12:40:59;56980.56;;;-144.78;28.20
55994;BME280;67425;52.126;20.638;2023-04-29T12:43:28;56995.09;;;-144.78;28.47
55994;BME280;67425;52.126;20.638;2023-04-29T12:46:02;56984.72;;;-144.78;27.96
55994;BME280;67425;52.126;20.638;2023-04-29T12:48:29;56974.34;;;-144.78;28.46
55994;BME280;67425;52.126;20.638;2023-04-29T12:50:56;56995.09;;;-144.78;28.96
55994;BME280;67425;52.126;20.638;2023-04-29T12:53:28;56966.03;;;-144.78;28.23
55994;BME280;67425;52.126;20.638;2023-04-29T12:55:54;56955.66;;;-144.78;27.85
55994;BME280;67425;52.126;20.638;2023-04-29T12:58:19;56941.13;;;-144.78;27.64
55994;BME280;67425;52.126;20.638;2023-04-29T13:00:45;56961.88;;;-144.78;27.51
55994;BME280;67425;52.126;20.638;2023-04-29T13:03:10;56955.66;;;-144.78;27.61
55994;BME280;67425;52.126;20.638;2023-04-29T13:05:36;56951.50;;;-144.78;27.88